sensor_id;sensor_type;location;lat;lon;timestamp;P1;durP1;ratioP1;P2;durP2;ratioP2
8042;SDS011;4064;48.132;11.366;2023-04-07T00:01:49;8.13;;;7.32;;
8042;SDS011;4064;48.132;11.366;2023-04-07T00:04:15;10.77;;;8.20;;
8042;SDS011;4064;48.132;11.366;2023-04-07T00:06:41;10.63;;;9.00;;
8042;SDS011;4064;48.132;11.366;2023-04-07T00:09:07;12.02;;;10.07;;
8042;SDS011;4064;48.132;11.366;2023-04-07T00:11:34;10.85;;;9.82;;
8042;SDS011;4064;48.132;11.366;2023-04-07T00:14:00;10.60;;;9.27;;
8042;SDS011;4064;48.132;11.366;2023-04-07T00:16:26;11.20;;;8.40;;
8042;SDS011;4064;48.132;11.366;2023-04-07T00:18:52;10.88;;;8.43;;
8042;SDS011;4064;48.132;11.366;2023-04-07T00:21:18;11.53;;;8.93;;
8042;SDS011;4064;48.132;11.366;2023-04-07T00:23:44;14.88;;;8.95;;
8042;SDS011;4064;48.132;11.366;2023-04-07T00:26:11;11.68;;;9.75;;
8042;SDS011;4064;48.132;11.366;2023-04-07T00:28:39;12.35;;;9.57;;
8042;SDS011;4064;48.132;11.366;2023-04-07T00:31:05;11.13;;;8.30;;
8042;SDS011;4064;48.132;11.366;2023-04-07T00:33:31;10.93;;;9.60;;
8042;SDS011;4064;48.132;11.366;2023-04-07T00:35:56;10.90;;;8.30;;
8042;SDS011;4064;48.132;11.366;2023-04-07T00:38:22;11.73;;;9.43;;
8042;SDS011;4064;48.132;11.366;2023-04-07T00:40:48;12.52;;;9.93;;
8042;SDS011;4064;48.132;11.366;2023-04-07T00:43:15;9.70;;;8.73;;
8042;SDS011;4064;48.132;11.366;2023-04-07T00:45:41;12.38;;;8.82;;
8042;SDS011;4064;48.132;11.366;2023-04-07T00:48:07;11.27;;;8.60;;
8042;SDS011;4064;48.132;11.366;2023-04-07T00:50:34;11.35;;;8.10;;
8042;SDS011;4064;48.132;11.366;2023-04-07T00:53:00;9.23;;;7.90;;
8042;SDS011;4064;48.132;11.366;2023-04-07T00:55:26;10.18;;;8.15;;
8042;SDS011;4064;48.132;11.366;2023-04-07T00:57:53;13.93;;;7.78;;
8042;SDS011;4064;48.132;11.366;2023-04-07T01:00:19;12.23;;;8.70;;
8042;SDS011;4064;48.132;11.366;2023-04-07T01:02:51;10.13;;;8.20;;
8042;SDS011;4064;48.132;11.366;2023-04-07T01:08:08;9.52;;;7.75;;
8042;SDS011;4064;48.132;11.366;2023-04-07T01:11:18;8.35;;;7.07;;
8042;SDS011;4064;48.132;11.366;2023-04-07T01:13:53;9.75;;;7.10;;
8042;SDS011;4064;48.132;11.366;2023-04-07T01:16:23;11.18;;;8.20;;
8042;SDS011;4064;48.132;11.366;2023-04-07T01:19:13;13.98;;;8.32;;
8042;SDS011;4064;48.132;11.366;2023-04-07T01:22:02;9.80;;;7.10;;
8042;SDS011;4064;48.132;11.366;2023-04-07T01:30:53;7.50;;;6.43;;
8042;SDS011;4064;48.132;11.366;2023-04-07T01:33:22;8.32;;;6.18;;
8042;SDS011;4064;48.132;11.366;2023-04-07T01:35:52;6.45;;;5.72;;
8042;SDS011;4064;48.132;11.366;2023-04-07T01:38:21;7.53;;;6.10;;
8042;SDS011;4064;48.132;11.366;2023-04-07T01:40:50;7.95;;;6.22;;
8042;SDS011;4064;48.132;11.366;2023-04-07T01:43:17;7.15;;;6.55;;
8042;SDS011;4064;48.132;11.366;2023-04-07T01:45:45;6.90;;;5.72;;
8042;SDS011;4064;48.132;11.366;2023-04-07T01:48:12;5.80;;;5.15;;
8042;SDS011;4064;48.132;11.366;2023-04-07T01:50:39;7.72;;;5.80;;
8042;SDS011;4064;48.132;11.366;2023-04-07T01:53:07;6.25;;;4.95;;
8042;SDS011;4064;48.132;11.366;2023-04-07T01:55:33;6.00;;;5.40;;
8042;SDS011;4064;48.132;11.366;2023-04-07T01:58:03;6.60;;;5.80;;
8042;SDS011;4064;48.132;11.366;2023-04-07T02:00:30;6.35;;;4.32;;
8042;SDS011;4064;48.132;11.366;2023-04-07T02:02:58;6.25;;;4.78;;
8042;SDS011;4064;48.132;11.366;2023-04-07T02:05:30;6.03;;;5.35;;
8042;SDS011;4064;48.132;11.366;2023-04-07T02:08:02;5.90;;;4.90;;
8042;SDS011;4064;48.132;11.366;2023-04-07T02:10:34;7.43;;;5.43;;
8042;SDS011;4064;48.132;11.366;2023-04-07T02:13:04;7.53;;;4.25;;
8042;SDS011;4064;48.132;11.366;2023-04-07T02:15:35;7.63;;;4.93;;
8042;SDS011;4064;48.132;11.366;2023-04-07T02:18:01;5.50;;;4.10;;
8042;SDS011;4064;48.132;11.366;2023-04-07T02:20:30;5.97;;;4.68;;
8042;SDS011;4064;48.132;11.366;2023-04-07T02:22:57;6.28;;;4.55;;
8042;SDS011;4064;48.132;11.366;2023-04-07T02:25:30;5.47;;;4.85;;
8042;SDS011;4064;48.132;11.366;2023-04-07T02:28:12;7.47;;;4.80;;
8042;SDS011;4064;48.132;11.366;2023-04-07T02:30:38;5.28;;;4.47;;
8042;SDS011;4064;48.132;11.366;2023-04-07T02:33:04;5.35;;;4.85;;
8042;SDS011;4064;48.132;11.366;2023-04-07T02:35:30;5.93;;;5.10;;
8042;SDS011;4064;48.132;11.366;2023-04-07T02:37:56;5.53;;;5.03;;
8042;SDS011;4064;48.132;11.366;2023-04-07T02:40:22;5.27;;;4.77;;
8042;SDS011;4064;48.132;11.366;2023-04-07T02:42:48;5.90;;;5.38;;
8042;SDS011;4064;48.132;11.366;2023-04-07T02:45:15;5.70;;;5.13;;
8042;SDS011;4064;48.132;11.366;2023-04-07T02:47:41;6.55;;;4.85;;
8042;SDS011;4064;48.132;11.366;2023-04-07T02:50:06;6.80;;;6.10;;
8042;SDS011;4064;48.132;11.366;2023-04-07T02:52:32;5.95;;;4.63;;
8042;SDS011;4064;48.132;11.366;2023-04-07T02:54:58;6.23;;;5.40;;
8042;SDS011;4064;48.132;11.366;2023-04-07T02:57:25;6.20;;;5.60;;
8042;SDS011;4064;48.132;11.366;2023-04-07T02:59:50;7.43;;;5.30;;
8042;SDS011;4064;48.132;11.366;2023-04-07T03:02:16;6.93;;;5.70;;
8042;SDS011;4064;48.132;11.366;2023-04-07T03:04:42;7.77;;;5.93;;
8042;SDS011;4064;48.132;11.366;2023-04-07T03:07:08;6.50;;;5.80;;
8042;SDS011;4064;48.132;11.366;2023-04-07T03:09:33;7.27;;;5.73;;
8042;SDS011;4064;48.132;11.366;2023-04-07T03:12:00;7.47;;;5.17;;
8042;SDS011;4064;48.132;11.366;2023-04-07T03:14:26;8.32;;;6.82;;
8042;SDS011;4064;48.132;11.366;2023-04-07T03:16:52;7.00;;;5.90;;
8042;SDS011;4064;48.132;11.366;2023-04-07T03:19:18;9.60;;;6.30;;
8042;SDS011;4064;48.132;11.366;2023-04-07T03:21:44;7.03;;;5.80;;
8042;SDS011;4064;48.132;11.366;2023-04-07T03:24:09;9.30;;;6.47;;
8042;SDS011;4064;48.132;11.366;2023-04-07T03:26:35;8.57;;;6.17;;
8042;SDS011;4064;48.132;11.366;2023-04-07T03:29:01;5.83;;;5.03;;
8042;SDS011;4064;48.132;11.366;2023-04-07T03:31:28;6.93;;;5.93;;
8042;SDS011;4064;48.132;11.366;2023-04-07T03:33:54;5.50;;;5.00;;
8042;SDS011;4064;48.132;11.366;2023-04-07T03:36:20;7.50;;;6.20;;
8042;SDS011;4064;48.132;11.366;2023-04-07T03:38:46;8.40;;;6.60;;
8042;SDS011;4064;48.132;11.366;2023-04-07T03:41:12;9.68;;;6.97;;
8042;SDS011;4064;48.132;11.366;2023-04-07T03:43:38;6.30;;;5.20;;
8042;SDS011;4064;48.132;11.366;2023-04-07T03:46:04;8.33;;;6.10;;
8042;SDS011;4064;48.132;11.366;2023-04-07T03:48:29;5.80;;;5.20;;
8042;SDS011;4064;48.132;11.366;2023-04-07T03:50:56;5.97;;;5.47;;
8042;SDS011;4064;48.132;11.366;2023-04-07T03:53:21;6.50;;;5.77;;
8042;SDS011;4064;48.132;11.366;2023-04-07T03:55:47;6.97;;;5.30;;
8042;SDS011;4064;48.132;11.366;2023-04-07T03:58:13;7.27;;;5.47;;
8042;SDS011;4064;48.132;11.366;2023-04-07T04:00:39;6.20;;;5.60;;
8042;SDS011;4064;48.132;11.366;2023-04-07T04:03:05;7.83;;;6.17;;
8042;SDS011;4064;48.132;11.366;2023-04-07T04:05:31;8.03;;;6.20;;
8042;SDS011;4064;48.132;11.366;2023-04-07T04:07:56;8.40;;;6.00;;
8042;SDS011;4064;48.132;11.366;2023-04-07T04:10:22;7.20;;;5.83;;
8042;SDS011;4064;48.132;11.366;2023-04-07T04:12:48;9.70;;;5.50;;
8042;SDS011;4064;48.132;11.366;2023-04-07T04:15:14;7.60;;;6.22;;
8042;SDS011;4064;48.132;11.366;2023-04-07T04:17:41;8.32;;;6.47;;
8042;SDS011;4064;48.132;11.366;2023-04-07T04:20:07;9.67;;;6.30;;
8042;SDS011;4064;48.132;11.366;2023-04-07T04:22:35;8.15;;;6.32;;
8042;SDS011;4064;48.132;11.366;2023-04-07T04:25:01;7.83;;;6.40;;
8042;SDS011;4064;48.132;11.366;2023-04-07T04:27:27;10.40;;;7.13;;
8042;SDS011;4064;48.132;11.366;2023-04-07T04:29:52;9.87;;;7.83;;
8042;SDS011;4064;48.132;11.366;2023-04-07T04:32:18;9.40;;;7.53;;
8042;SDS011;4064;48.132;11.366;2023-04-07T04:34:45;8.32;;;6.65;;
8042;SDS011;4064;48.132;11.366;2023-04-07T04:37:11;8.53;;;6.87;;
8042;SDS011;4064;48.132;11.366;2023-04-07T04:39:36;12.30;;;7.10;;
8042;SDS011;4064;48.132;11.366;2023-04-07T04:42:04;9.15;;;7.65;;
8042;SDS011;4064;48.132;11.366;2023-04-07T04:44:30;9.50;;;8.10;;
8042;SDS011;4064;48.132;11.366;2023-04-07T04:46:56;14.00;;;8.02;;
8042;SDS011;4064;48.132;11.366;2023-04-07T04:49:22;10.60;;;7.90;;
8042;SDS011;4064;48.132;11.366;2023-04-07T04:51:47;12.33;;;8.60;;
8042;SDS011;4064;48.132;11.366;2023-04-07T04:54:14;10.47;;;7.17;;
8042;SDS011;4064;48.132;11.366;2023-04-07T04:56:42;10.93;;;8.63;;
8042;SDS011;4064;48.132;11.366;2023-04-07T04:59:08;7.77;;;6.73;;
8042;SDS011;4064;48.132;11.366;2023-04-07T05:01:34;9.10;;;8.13;;
8042;SDS011;4064;48.132;11.366;2023-04-07T05:04:00;9.07;;;7.00;;
8042;SDS011;4064;48.132;11.366;2023-04-07T05:06:25;10.17;;;8.67;;
8042;SDS011;4064;48.132;11.366;2023-04-07T05:08:53;7.90;;;6.68;;
8042;SDS011;4064;48.132;11.366;2023-04-07T05:11:20;9.13;;;8.20;;
8042;SDS011;4064;48.132;11.366;2023-04-07T05:13:46;10.27;;;9.27;;
8042;SDS011;4064;48.132;11.366;2023-04-07T05:16:11;10.83;;;8.53;;
8042;SDS011;4064;48.132;11.366;2023-04-07T05:18:37;10.13;;;7.23;;
8042;SDS011;4064;48.132;11.366;2023-04-07T05:21:03;10.93;;;7.90;;
8042;SDS011;4064;48.132;11.366;2023-04-07T05:23:29;10.90;;;8.30;;
8042;SDS011;4064;48.132;11.366;2023-04-07T05:25:55;10.33;;;8.83;;
8042;SDS011;4064;48.132;11.366;2023-04-07T05:28:21;8.43;;;7.53;;
8042;SDS011;4064;48.132;11.366;2023-04-07T05:30:46;11.13;;;8.73;;
8042;SDS011;4064;48.132;11.366;2023-04-07T05:33:12;9.77;;;8.03;;
8042;SDS011;4064;48.132;11.366;2023-04-07T05:35:38;10.13;;;9.07;;
8042;SDS011;4064;48.132;11.366;2023-04-07T05:38:04;10.02;;;8.25;;
8042;SDS011;4064;48.132;11.366;2023-04-07T05:40:30;8.90;;;7.93;;
8042;SDS011;4064;48.132;11.366;2023-04-07T05:42:56;9.63;;;8.23;;
8042;SDS011;4064;48.132;11.366;2023-04-07T05:45:23;10.43;;;8.32;;
8042;SDS011;4064;48.132;11.366;2023-04-07T05:47:49;10.53;;;8.50;;
8042;SDS011;4064;48.132;11.366;2023-04-07T05:50:15;11.32;;;8.13;;
8042;SDS011;4064;48.132;11.366;2023-04-07T05:52:42;10.73;;;8.70;;
8042;SDS011;4064;48.132;11.366;2023-04-07T05:55:07;9.97;;;8.13;;
8042;SDS011;4064;48.132;11.366;2023-04-07T05:57:33;8.93;;;7.90;;
8042;SDS011;4064;48.132;11.366;2023-04-07T06:00:00;11.63;;;9.52;;
8042;SDS011;4064;48.132;11.366;2023-04-07T06:02:27;12.52;;;9.15;;
8042;SDS011;4064;48.132;11.366;2023-04-07T06:04:52;11.00;;;8.67;;
8042;SDS011;4064;48.132;11.366;2023-04-07T06:07:18;13.00;;;8.13;;
8042;SDS011;4064;48.132;11.366;2023-04-07T06:09:44;9.33;;;6.90;;
8042;SDS011;4064;48.132;11.366;2023-04-07T06:12:10;10.10;;;8.10;;
8042;SDS011;4064;48.132;11.366;2023-04-07T06:14:37;11.05;;;9.95;;
8042;SDS011;4064;48.132;11.366;2023-04-07T06:17:03;9.40;;;8.15;;
8042;SDS011;4064;48.132;11.366;2023-04-07T06:19:29;9.33;;;7.93;;
8042;SDS011;4064;48.132;11.366;2023-04-07T06:21:55;9.10;;;8.23;;
8042;SDS011;4064;48.132;11.366;2023-04-07T06:24:21;9.20;;;8.20;;
8042;SDS011;4064;48.132;11.366;2023-04-07T06:26:49;10.18;;;8.95;;
8042;SDS011;4064;48.132;11.366;2023-04-07T06:29:16;9.70;;;8.33;;
8042;SDS011;4064;48.132;11.366;2023-04-07T06:31:41;14.70;;;11.20;;
8042;SDS011;4064;48.132;11.366;2023-04-07T06:34:07;11.13;;;8.77;;
8042;SDS011;4064;48.132;11.366;2023-04-07T06:36:33;9.33;;;8.37;;
8042;SDS011;4064;48.132;11.366;2023-04-07T06:38:59;9.53;;;8.27;;
8042;SDS011;4064;48.132;11.366;2023-04-07T06:41:25;9.43;;;7.93;;
8042;SDS011;4064;48.132;11.366;2023-04-07T06:43:51;9.27;;;7.83;;
8042;SDS011;4064;48.132;11.366;2023-04-07T06:46:18;9.63;;;8.10;;
8042;SDS011;4064;48.132;11.366;2023-04-07T06:48:44;10.03;;;8.47;;
8042;SDS011;4064;48.132;11.366;2023-04-07T06:51:10;9.33;;;7.87;;
8042;SDS011;4064;48.132;11.366;2023-04-07T06:53:36;12.50;;;9.00;;
8042;SDS011;4064;48.132;11.366;2023-04-07T06:56:08;10.23;;;8.27;;
8042;SDS011;4064;48.132;11.366;2023-04-07T06:58:35;8.93;;;8.07;;
8042;SDS011;4064;48.132;11.366;2023-04-07T07:01:04;9.93;;;8.50;;
8042;SDS011;4064;48.132;11.366;2023-04-07T07:03:30;9.57;;;7.90;;
8042;SDS011;4064;48.132;11.366;2023-04-07T07:05:57;9.50;;;7.47;;
8042;SDS011;4064;48.132;11.366;2023-04-07T07:08:26;8.77;;;7.00;;
8042;SDS011;4064;48.132;11.366;2023-04-07T07:10:54;10.10;;;8.43;;
8042;SDS011;4064;48.132;11.366;2023-04-07T07:13:21;8.70;;;7.80;;
8042;SDS011;4064;48.132;11.366;2023-04-07T07:15:53;7.50;;;6.20;;
8042;SDS011;4064;48.132;11.366;2023-04-07T07:18:19;8.80;;;8.00;;
8042;SDS011;4064;48.132;11.366;2023-04-07T07:20:45;10.50;;;7.73;;
8042;SDS011;4064;48.132;11.366;2023-04-07T07:23:10;11.47;;;9.10;;
8042;SDS011;4064;48.132;11.366;2023-04-07T07:25:36;8.67;;;7.77;;
8042;SDS011;4064;48.132;11.366;2023-04-07T07:28:02;9.63;;;8.17;;
8042;SDS011;4064;48.132;11.366;2023-04-07T07:30:28;8.10;;;7.40;;
8042;SDS011;4064;48.132;11.366;2023-04-07T07:32:54;9.70;;;6.93;;
8042;SDS011;4064;48.132;11.366;2023-04-07T07:35:20;11.10;;;8.23;;
8042;SDS011;4064;48.132;11.366;2023-04-07T07:37:49;9.53;;;8.30;;
8042;SDS011;4064;48.132;11.366;2023-04-07T07:40:15;9.30;;;7.90;;
8042;SDS011;4064;48.132;11.366;2023-04-07T07:42:42;8.27;;;7.37;;
8042;SDS011;4064;48.132;11.366;2023-04-07T07:45:08;9.97;;;8.00;;
8042;SDS011;4064;48.132;11.366;2023-04-07T07:47:34;8.33;;;7.50;;
8042;SDS011;4064;48.132;11.366;2023-04-07T07:50:02;10.20;;;8.20;;
8042;SDS011;4064;48.132;11.366;2023-04-07T07:52:29;9.73;;;8.67;;
8042;SDS011;4064;48.132;11.366;2023-04-07T07:54:55;7.97;;;7.17;;
8042;SDS011;4064;48.132;11.366;2023-04-07T07:57:21;8.13;;;7.40;;
8042;SDS011;4064;48.132;11.366;2023-04-07T07:59:47;9.90;;;7.07;;
8042;SDS011;4064;48.132;11.366;2023-04-07T08:02:12;8.30;;;6.57;;
8042;SDS011;4064;48.132;11.366;2023-04-07T08:04:39;8.27;;;7.37;;
8042;SDS011;4064;48.132;11.366;2023-04-07T08:07:05;8.37;;;7.53;;
8042;SDS011;4064;48.132;11.366;2023-04-07T08:09:31;8.90;;;6.87;;
8042;SDS011;4064;48.132;11.366;2023-04-07T08:11:57;7.50;;;6.70;;
8042;SDS011;4064;48.132;11.366;2023-04-07T08:14:23;8.50;;;6.97;;
8042;SDS011;4064;48.132;11.366;2023-04-07T08:16:49;8.60;;;7.20;;
8042;SDS011;4064;48.132;11.366;2023-04-07T08:19:16;8.73;;;7.03;;
8042;SDS011;4064;48.132;11.366;2023-04-07T08:21:42;6.43;;;5.83;;
8042;SDS011;4064;48.132;11.366;2023-04-07T08:24:08;7.80;;;6.27;;
8042;SDS011;4064;48.132;11.366;2023-04-07T08:26:35;6.70;;;6.10;;
8042;SDS011;4064;48.132;11.366;2023-04-07T08:29:01;7.40;;;6.70;;
8042;SDS011;4064;48.132;11.366;2023-04-07T08:31:27;6.60;;;6.00;;
8042;SDS011;4064;48.132;11.366;2023-04-07T08:33:54;8.23;;;6.30;;
8042;SDS011;4064;48.132;11.366;2023-04-07T08:36:23;6.97;;;6.37;;
8042;SDS011;4064;48.132;11.366;2023-04-07T08:38:50;8.73;;;6.80;;
8042;SDS011;4064;48.132;11.366;2023-04-07T08:41:22;6.20;;;5.60;;
8042;SDS011;4064;48.132;11.366;2023-04-07T08:43:52;8.00;;;6.43;;
8042;SDS011;4064;48.132;11.366;2023-04-07T08:46:20;9.80;;;6.30;;
8042;SDS011;4064;48.132;11.366;2023-04-07T08:48:50;8.33;;;7.07;;
8042;SDS011;4064;48.132;11.366;2023-04-07T08:51:21;7.10;;;6.50;;
8042;SDS011;4064;48.132;11.366;2023-04-07T08:53:53;6.53;;;5.83;;
8042;SDS011;4064;48.132;11.366;2023-04-07T08:56:43;6.03;;;5.53;;
8042;SDS011;4064;48.132;11.366;2023-04-07T08:59:11;6.50;;;5.90;;
8042;SDS011;4064;48.132;11.366;2023-04-07T09:01:38;6.70;;;6.10;;
8042;SDS011;4064;48.132;11.366;2023-04-07T09:04:05;6.13;;;4.87;;
8042;SDS011;4064;48.132;11.366;2023-04-07T09:06:34;5.43;;;4.93;;
8042;SDS011;4064;48.132;11.366;2023-04-07T09:09:01;6.10;;;5.40;;
8042;SDS011;4064;48.132;11.366;2023-04-07T09:11:29;4.67;;;4.27;;
8042;SDS011;4064;48.132;11.366;2023-04-07T09:13:58;4.70;;;4.30;;
8042;SDS011;4064;48.132;11.366;2023-04-07T09:16:26;5.20;;;4.70;;
8042;SDS011;4064;48.132;11.366;2023-04-07T09:18:53;5.57;;;5.07;;
8042;SDS011;4064;48.132;11.366;2023-04-07T09:21:19;7.00;;;4.80;;
8042;SDS011;4064;48.132;11.366;2023-04-07T09:23:45;5.80;;;4.87;;
8042;SDS011;4064;48.132;11.366;2023-04-07T09:26:19;5.17;;;4.67;;
8042;SDS011;4064;48.132;11.366;2023-04-07T09:29:07;4.63;;;4.23;;
8042;SDS011;4064;48.132;11.366;2023-04-07T09:31:43;5.73;;;4.97;;
8042;SDS011;4064;48.132;11.366;2023-04-07T09:36:57;5.67;;;5.17;;
8042;SDS011;4064;48.132;11.366;2023-04-07T09:39:23;6.07;;;5.57;;
8042;SDS011;4064;48.132;11.366;2023-04-07T09:41:50;5.90;;;5.30;;
8042;SDS011;4064;48.132;11.366;2023-04-07T09:44:23;5.53;;;5.00;;
8042;SDS011;4064;48.132;11.366;2023-04-07T09:46:54;5.30;;;4.90;;
8042;SDS011;4064;48.132;11.366;2023-04-07T09:49:22;6.33;;;5.10;;
8042;SDS011;4064;48.132;11.366;2023-04-07T09:54:32;7.17;;;6.47;;
8042;SDS011;4064;48.132;11.366;2023-04-07T09:57:09;6.07;;;5.57;;
8042;SDS011;4064;48.132;11.366;2023-04-07T09:59:51;5.60;;;5.10;;
8042;SDS011;4064;48.132;11.366;2023-04-07T10:02:19;6.57;;;5.40;;
8042;SDS011;4064;48.132;11.366;2023-04-07T10:04:46;6.80;;;6.20;;
8042;SDS011;4064;48.132;11.366;2023-04-07T10:07:12;5.80;;;5.30;;
8042;SDS011;4064;48.132;11.366;2023-04-07T10:09:39;6.27;;;5.77;;
8042;SDS011;4064;48.132;11.366;2023-04-07T10:12:06;6.17;;;5.57;;
8042;SDS011;4064;48.132;11.366;2023-04-07T10:14:32;6.60;;;6.00;;
8042;SDS011;4064;48.132;11.366;2023-04-07T10:17:00;6.73;;;6.10;;
8042;SDS011;4064;48.132;11.366;2023-04-07T10:19:31;6.50;;;5.80;;
8042;SDS011;4064;48.132;11.366;2023-04-07T10:21:58;6.50;;;5.90;;
8042;SDS011;4064;48.132;11.366;2023-04-07T10:27:20;5.67;;;5.17;;
8042;SDS011;4064;48.132;11.366;2023-04-07T10:29:52;7.30;;;6.60;;
8042;SDS011;4064;48.132;11.366;2023-04-07T10:32:19;7.43;;;6.73;;
8042;SDS011;4064;48.132;11.366;2023-04-07T10:37:21;7.40;;;6.70;;
8042;SDS011;4064;48.132;11.366;2023-04-07T10:39:49;7.60;;;6.80;;
8042;SDS011;4064;48.132;11.366;2023-04-07T10:45:01;7.73;;;5.50;;
8042;SDS011;4064;48.132;11.366;2023-04-07T10:47:28;8.70;;;7.80;;
8042;SDS011;4064;48.132;11.366;2023-04-07T10:52:47;7.93;;;7.07;;
8042;SDS011;4064;48.132;11.366;2023-04-07T10:55:31;7.20;;;6.00;;
8042;SDS011;4064;48.132;11.366;2023-04-07T10:58:13;6.60;;;6.00;;
8042;SDS011;4064;48.132;11.366;2023-04-07T11:06:08;7.77;;;7.17;;
8042;SDS011;4064;48.132;11.366;2023-04-07T11:11:07;8.47;;;7.77;;
8042;SDS011;4064;48.132;11.366;2023-04-07T11:13:45;7.07;;;6.37;;
8042;SDS011;4064;48.132;11.366;2023-04-07T11:16:34;6.87;;;6.23;;
8042;SDS011;4064;48.132;11.366;2023-04-07T11:19:01;7.70;;;6.50;;
8042;SDS011;4064;48.132;11.366;2023-04-07T11:21:27;9.17;;;6.50;;
8042;SDS011;4064;48.132;11.366;2023-04-07T11:23:53;8.03;;;7.23;;
8042;SDS011;4064;48.132;11.366;2023-04-07T11:26:18;7.43;;;6.73;;
8042;SDS011;4064;48.132;11.366;2023-04-07T11:28:49;7.37;;;6.67;;
8042;SDS011;4064;48.132;11.366;2023-04-07T11:31:26;7.17;;;6.40;;
8042;SDS011;4064;48.132;11.366;2023-04-07T11:33:54;7.40;;;6.70;;
8042;SDS011;4064;48.132;11.366;2023-04-07T11:36:40;7.83;;;7.10;;
8042;SDS011;4064;48.132;11.366;2023-04-07T11:39:19;8.10;;;7.30;;
8042;SDS011;4064;48.132;11.366;2023-04-07T11:41:47;8.17;;;6.73;;
8042;SDS011;4064;48.132;11.366;2023-04-07T11:44:14;8.67;;;5.73;;
8042;SDS011;4064;48.132;11.366;2023-04-07T11:46:57;7.93;;;7.13;;
8042;SDS011;4064;48.132;11.366;2023-04-07T11:49:25;7.50;;;6.70;;
8042;SDS011;4064;48.132;11.366;2023-04-07T11:54:41;7.10;;;6.43;;
8042;SDS011;4064;48.132;11.366;2023-04-07T11:57:11;6.13;;;5.20;;
8042;SDS011;4064;48.132;11.366;2023-04-07T11:59:37;7.80;;;7.00;;
8042;SDS011;4064;48.132;11.366;2023-04-07T12:02:03;6.20;;;5.70;;
8042;SDS011;4064;48.132;11.366;2023-04-07T12:04:30;7.57;;;6.87;;
8042;SDS011;4064;48.132;11.366;2023-04-07T12:07:07;6.23;;;5.73;;
8042;SDS011;4064;48.132;11.366;2023-04-07T12:09:34;6.87;;;5.97;;
8042;SDS011;4064;48.132;11.366;2023-04-07T12:12:02;7.60;;;6.90;;
8042;SDS011;4064;48.132;11.366;2023-04-07T12:14:34;6.50;;;5.80;;
8042;SDS011;4064;48.132;11.366;2023-04-07T12:17:01;6.60;;;6.00;;
8042;SDS011;4064;48.132;11.366;2023-04-07T12:19:28;7.23;;;6.40;;
8042;SDS011;4064;48.132;11.366;2023-04-07T12:21:54;6.57;;;5.67;;
8042;SDS011;4064;48.132;11.366;2023-04-07T12:24:21;7.93;;;5.90;;
8042;SDS011;4064;48.132;11.366;2023-04-07T12:26:47;7.17;;;6.53;;
8042;SDS011;4064;48.132;11.366;2023-04-07T12:29:14;6.60;;;6.00;;
8042;SDS011;4064;48.132;11.366;2023-04-07T12:31:44;6.17;;;5.57;;
8042;SDS011;4064;48.132;11.366;2023-04-07T12:34:10;5.97;;;5.40;;
8042;SDS011;4064;48.132;11.366;2023-04-07T12:36:35;5.33;;;4.83;;
8042;SDS011;4064;48.132;11.366;2023-04-07T12:39:01;5.87;;;5.37;;
8042;SDS011;4064;48.132;11.366;2023-04-07T12:41:27;5.50;;;5.00;;
8042;SDS011;4064;48.132;11.366;2023-04-07T12:43:52;7.47;;;6.70;;
8042;SDS011;4064;48.132;11.366;2023-04-07T12:46:19;7.97;;;7.17;;
8042;SDS011;4064;48.132;11.366;2023-04-07T12:48:45;8.17;;;7.37;;
8042;SDS011;4064;48.132;11.366;2023-04-07T12:51:12;7.23;;;6.53;;
8042;SDS011;4064;48.132;11.366;2023-04-07T12:53:37;6.40;;;5.90;;
8042;SDS011;4064;48.132;11.366;2023-04-07T12:56:04;7.10;;;6.37;;
8042;SDS011;4064;48.132;11.366;2023-04-07T12:58:30;7.37;;;6.33;;
8042;SDS011;4064;48.132;11.366;2023-04-07T13:00:55;8.43;;;7.70;;
8042;SDS011;4064;48.132;11.366;2023-04-07T13:03:23;9.57;;;8.57;;
8042;SDS011;4064;48.132;11.366;2023-04-07T13:05:48;10.20;;;7.93;;
8042;SDS011;4064;48.132;11.366;2023-04-07T13:08:14;9.40;;;7.63;;
8042;SDS011;4064;48.132;11.366;2023-04-07T13:10:40;9.80;;;7.67;;
8042;SDS011;4064;48.132;11.366;2023-04-07T13:13:06;7.53;;;6.83;;
8042;SDS011;4064;48.132;11.366;2023-04-07T13:15:32;8.07;;;7.27;;
8042;SDS011;4064;48.132;11.366;2023-04-07T13:17:58;8.20;;;7.50;;
8042;SDS011;4064;48.132;11.366;2023-04-07T13:20:23;8.77;;;7.50;;
8042;SDS011;4064;48.132;11.366;2023-04-07T13:22:52;7.63;;;6.93;;
8042;SDS011;4064;48.132;11.366;2023-04-07T13:25:18;7.57;;;6.87;;
8042;SDS011;4064;48.132;11.366;2023-04-07T13:27:45;8.07;;;7.30;;
8042;SDS011;4064;48.132;11.366;2023-04-07T13:30:12;7.63;;;6.83;;
8042;SDS011;4064;48.132;11.366;2023-04-07T13:32:37;8.07;;;7.47;;
8042;SDS011;4064;48.132;11.366;2023-04-07T13:35:03;8.07;;;7.27;;
8042;SDS011;4064;48.132;11.366;2023-04-07T13:37:29;7.47;;;6.77;;
8042;SDS011;4064;48.132;11.366;2023-04-07T13:39:55;8.37;;;7.67;;
8042;SDS011;4064;48.132;11.366;2023-04-07T13:42:21;7.90;;;7.20;;
8042;SDS011;4064;48.132;11.366;2023-04-07T13:44:47;7.57;;;6.87;;
8042;SDS011;4064;48.132;11.366;2023-04-07T13:47:14;8.17;;;7.00;;
8042;SDS011;4064;48.132;11.366;2023-04-07T13:49:46;9.33;;;7.77;;
8042;SDS011;4064;48.132;11.366;2023-04-07T13:52:13;7.20;;;6.50;;
8042;SDS011;4064;48.132;11.366;2023-04-07T13:54:39;7.53;;;6.83;;
8042;SDS011;4064;48.132;11.366;2023-04-07T13:57:06;8.83;;;7.80;;
8042;SDS011;4064;48.132;11.366;2023-04-07T13:59:32;7.73;;;6.93;;
8042;SDS011;4064;48.132;11.366;2023-04-07T14:01:58;8.20;;;7.20;;
8042;SDS011;4064;48.132;11.366;2023-04-07T14:04:24;7.77;;;7.00;;
8042;SDS011;4064;48.132;11.366;2023-04-07T14:06:50;11.97;;;7.97;;
8042;SDS011;4064;48.132;11.366;2023-04-07T14:09:17;7.73;;;6.27;;
8042;SDS011;4064;48.132;11.366;2023-04-07T14:11:42;7.17;;;6.50;;
8042;SDS011;4064;48.132;11.366;2023-04-07T14:14:08;7.87;;;7.07;;
8042;SDS011;4064;48.132;11.366;2023-04-07T14:16:34;7.20;;;6.57;;
8042;SDS011;4064;48.132;11.366;2023-04-07T14:19:00;7.30;;;6.60;;
8042;SDS011;4064;48.132;11.366;2023-04-07T14:21:26;7.03;;;5.87;;
8042;SDS011;4064;48.132;11.366;2023-04-07T14:23:52;6.97;;;6.37;;
8042;SDS011;4064;48.132;11.366;2023-04-07T14:26:19;6.80;;;6.17;;
8042;SDS011;4064;48.132;11.366;2023-04-07T14:28:45;7.20;;;6.57;;
8042;SDS011;4064;48.132;11.366;2023-04-07T14:31:14;6.67;;;6.07;;
8042;SDS011;4064;48.132;11.366;2023-04-07T14:33:41;6.57;;;5.97;;
8042;SDS011;4064;48.132;11.366;2023-04-07T14:36:07;5.50;;;5.10;;
8042;SDS011;4064;48.132;11.366;2023-04-07T14:38:34;7.07;;;6.37;;
8042;SDS011;4064;48.132;11.366;2023-04-07T14:40:59;6.20;;;5.60;;
8042;SDS011;4064;48.132;11.366;2023-04-07T14:43:27;6.97;;;5.50;;
8042;SDS011;4064;48.132;11.366;2023-04-07T14:45:53;7.27;;;6.20;;
8042;SDS011;4064;48.132;11.366;2023-04-07T14:48:19;7.57;;;5.90;;
8042;SDS011;4064;48.132;11.366;2023-04-07T14:50:46;7.30;;;6.60;;
8042;SDS011;4064;48.132;11.366;2023-04-07T14:53:12;6.67;;;5.97;;
8042;SDS011;4064;48.132;11.366;2023-04-07T14:55:40;6.20;;;5.60;;
8042;SDS011;4064;48.132;11.366;2023-04-07T14:58:06;6.83;;;6.13;;
8042;SDS011;4064;48.132;11.366;2023-04-07T15:00:32;8.20;;;6.83;;
8042;SDS011;4064;48.132;11.366;2023-04-07T15:02:58;6.77;;;6.00;;
8042;SDS011;4064;48.132;11.366;2023-04-07T15:05:24;7.17;;;5.80;;
8042;SDS011;4064;48.132;11.366;2023-04-07T15:07:53;7.57;;;6.77;;
8042;SDS011;4064;48.132;11.366;2023-04-07T15:10:18;7.80;;;5.83;;
8042;SDS011;4064;48.132;11.366;2023-04-07T15:12:45;9.97;;;6.47;;
8042;SDS011;4064;48.132;11.366;2023-04-07T15:15:11;7.00;;;5.93;;
8042;SDS011;4064;48.132;11.366;2023-04-07T15:17:37;6.37;;;5.77;;
8042;SDS011;4064;48.132;11.366;2023-04-07T15:20:03;8.00;;;6.30;;
8042;SDS011;4064;48.132;11.366;2023-04-07T15:22:31;7.60;;;6.90;;
8042;SDS011;4064;48.132;11.366;2023-04-07T15:24:57;6.73;;;6.10;;
8042;SDS011;4064;48.132;11.366;2023-04-07T15:27:23;7.73;;;6.90;;
8042;SDS011;4064;48.132;11.366;2023-04-07T15:29:49;10.33;;;7.37;;
8042;SDS011;4064;48.132;11.366;2023-04-07T15:32:15;6.83;;;6.13;;
8042;SDS011;4064;48.132;11.366;2023-04-07T15:34:41;6.90;;;6.30;;
8042;SDS011;4064;48.132;11.366;2023-04-07T15:37:07;8.97;;;7.27;;